Lake Fork, Illinois
Current Conditions -  °F | °C
As of 12:35 AM on Sunday 21 Dec 2014 (Local Time) from KAAA Reporting Station
Overcast Overcast  
Wind Chill: 30°   Ceiling: 3500
Heat Index: 35°   Visibility: 7mi
Dew Point: 32°   Wind: 6mph
Humidity: 89%   Direction: 160°SSE
Pressure: 30.24"   Gusts: NA
Location:  39.97°N, 89.35°W
Report Text: KAAA 210635Z AUTO 16005KT 7SM OVC035 02/00 A3024 RMK AO2 T00151002
Loading
Personal Weather Stations






























Interactive Weather Map New forecast layout! Learn more

10-Day Weather Forecast

Advertisements
Track Severe Weather on mobile